Aviation Digital Data Service (ADDS)

Output produced by METARs form (0406 UTC 26 June 2019)
found at http://www.aviationweather.gov/metar/data/
 
Forecast for: EBCI (CHARLEROI/GOSSEL, BE)
Text: TAF EBCI 252310Z 2600/2706 32006KT CAVOK
Forecast period: 0000 to 1600 UTC 26 June 2019
Forecast type: FROM: standard forecast or significant change
Winds: from the NW (320 degrees) at 7 MPH (6 knots; 3.1 m/s)
Visibility: 6 or more miles 10+ km)
Ceiling: unknown
Clouds: missing
Weather: NSW  (no significant weather)
Text: BECMG 2616/2618 03010KT
Forecast period: 1600 UTC 26 June 2019 to 0600 UTC 27 June 2019
Forecast type: BECOMING: Conditions expected to become as follows by 1800 UTC 26 June 2019
Winds: from the NNE (30 degrees) at 12 MPH (10 knots; 5.1 m/s)
Visibility: 6 or more miles 10+ km)
Ceiling: unknown
Clouds: missing
Weather: NSW  (no significant weather)